TNCA/AUA METAR and TAF weather

Enter ICAO airport designator
Station Type Date Time Source
TNCA METAR 2022/12/10 01:00 UTC NOAA

TNCA 100100Z 08006KT 9999 FEW018 26/19 Q1012 NOSIG


Station Type Date Time Source
TNCA Decoded METAR 2022/12/10 01:00 UTC NOAA

Queen Beatrix Airport, Aruba (TNCA) 12-30N 070-01W 33M
Dec 09, 2022 - 08:00 PM EST / 2022.12.10 0100 UTC
Wind: from the E (080 degrees) at 7 MPH (6 KT):0
Visibility: greater than 7 mile(s):0
Sky conditions: mostly clear
Temperature: 78 F (26 C)
Dew Point: 66 F (19 C)
Relative Humidity: 65%
Pressure (altimeter): 29.88 in. Hg (1012 hPa)
ob: TNCA 100100Z 08006KT 9999 FEW018 26/19 Q1012 NOSIG
cycle: 1

Station Type Date Time Source
TNCA TAF 2022/12/09 18:58 UTC NOAA

TAF TNCA 081702Z 0818/0918 06010KT 9999 SCT022 PROB30
TEMPO 0900/0918 5000 SHRA BKN014

Example: see airport list